Time;durP1;ratioP1;P1;durP2;ratioP2;P2;SDS_P1;SDS_P2;PMS_P1;PMS_P2;Temp;Humidity;BMP_temperature;BMP_pressure;BME280_temperature;BME280_humidity;BME280_pressure;Samples;Min_cycle;Max_cycle;Signal;HPM_P1;HPM_P2
2022/06/20 00:00:13;;;;;;;;;;;;;;;20.05;60.29;99452.03;4366710;32;20367;-86
2022/06/20 00:02:42;;;;;;;;;;;;;;;19.58;60.27;99453.78;4378983;32;20021;-86
2022/06/20 00:05:10;;;;;;;;;;;;;;;19.58;60.27;99444.06;4379141;32;19994;-86
2022/06/20 00:07:35;;;;;;;;;;;;;;;19.73;60.28;99447.38;4379073;32;19990;-86
2022/06/20 00:10:02;;;;;;;;;;;;;;;19.84;60.29;99442.13;4356287;32;22857;-86
2022/06/20 00:12:27;;;;;;;;;;;;;;;19.75;60.27;99436.69;4367746;32;19959;-86
2022/06/20 00:14:53;;;;;;;;;;;;;;;19.79;60.28;99441.62;4367899;32;20017;-86
2022/06/20 00:17:19;;;;;;;;;;;;;;;19.71;60.28;99435.25;4380488;32;19994;-86
2022/06/20 00:19:44;;;;;;;;;;;;;;;19.55;60.27;99432.91;4393458;32;27827;-87
2022/06/20 00:22:09;;;;;;;;;;;;;;;19.56;60.27;99430.13;4393939;32;19970;-86
2022/06/20 00:24:35;;;;;;;;;;;;;;;19.31;60.26;99425.78;4380231;32;20006;-86
2022/06/20 00:27:00;;;;;;;;;;;;;;;19.41;60.26;99431.25;4379929;32;20042;-86
2022/06/20 00:29:28;;;;;;;;;;;;;;;19.37;60.25;99427.13;4394009;32;20383;-87
2022/06/20 00:31:53;;;;;;;;;;;;;;;19.31;60.26;99431.06;4394065;32;20069;-87
2022/06/20 00:34:18;;;;;;;;;;;;;;;19.32;60.26;99426.62;4367259;32;26442;-86
2022/06/20 00:36:43;;;;;;;;;;;;;;;19.13;60.24;99432.41;4367645;32;20079;-87
2022/06/20 00:39:09;;;;;;;;;;;;;;;19.32;60.25;99427.47;4393744;32;20578;-87
2022/06/20 00:41:35;;;;;;;;;;;;;;;19.21;60.24;99430.06;4380259;32;19989;-87
2022/06/20 00:44:01;;;;;;;;;;;;;;;19.38;60.25;99422.69;4392549;32;20529;-85
2022/06/20 00:46:26;;;;;;;;;;;;;;;19.26;60.25;99422.66;4394150;32;20052;-84
2022/06/20 00:48:55;;;;;;;;;;;;;;;19.42;60.25;99418.91;4393909;32;20041;-84
2022/06/20 00:51:30;;;;;;;;;;;;;;;19.29;60.26;99417.16;4380299;32;19974;-84
2022/06/20 00:54:02;;;;;;;;;;;;;;;19.23;60.25;99412.31;4394180;32;20002;-84
2022/06/20 00:56:33;;;;;;;;;;;;;;;19.18;60.25;99400.44;4380496;32;20002;-84
2022/06/20 00:58:59;;;;;;;;;;;;;;;19.16;60.25;99402.31;4380499;32;19966;-85
2022/06/20 01:01:32;;;;;;;;;;;;;;;19.19;60.25;99404.75;4380142;32;19966;-85
2022/06/20 01:03:58;;;;;;;;;;;;;;;19.10;60.24;99400.97;4380337;32;20650;-85
2022/06/20 01:06:28;;;;;;;;;;;;;;;18.93;60.23;99404.00;4380480;32;19994;-85
2022/06/20 01:08:57;;;;;;;;;;;;;;;18.88;60.23;99401.66;4379268;32;19974;-87
2022/06/20 01:11:24;;;;;;;;;;;;;;;18.85;60.23;99396.63;4367771;32;19994;-87
2022/06/20 01:13:49;;;;;;;;;;;;;;;18.79;60.22;99404.13;4380378;32;20350;-87
2022/06/20 01:16:15;;;;;;;;;;;;;;;18.69;60.22;99399.53;4392759;32;20014;-88
2022/06/20 01:18:43;;;;;;;;;;;;;;;18.75;60.22;99397.41;4380034;32;19979;-88
2022/06/20 01:21:10;;;;;;;;;;;;;;;18.67;60.21;99388.22;4380174;32;19975;-88
2022/06/20 01:23:44;;;;;;;;;;;;;;;18.88;60.23;99374.44;4367637;32;20044;-88
2022/06/20 01:26:12;;;;;;;;;;;;;;;18.82;60.23;99377.53;4367708;32;20010;-88
2022/06/20 01:28:39;;;;;;;;;;;;;;;18.83;60.23;99373.94;4393808;32;19970;-88
2022/06/20 01:31:04;;;;;;;;;;;;;;;18.62;60.22;99363.97;4380196;32;19986;-88
2022/06/20 01:33:29;;;;;;;;;;;;;;;18.77;60.23;99358.56;4393344;32;23265;-88
2022/06/20 01:38:39;;;;;;;;;;;;;;;18.60;60.21;99368.50;4382302;32;20006;-88
2022/06/20 01:43:49;;;;;;;;;;;;;;;18.45;60.20;99372.19;4382212;32;20338;-88
2022/06/20 01:46:14;;;;;;;;;;;;;;;18.55;60.21;99362.72;4380092;32;19982;-87
2022/06/20 01:48:49;;;;;;;;;;;;;;;18.44;60.20;99365.25;4379934;32;19978;-88
2022/06/20 01:51:24;;;;;;;;;;;;;;;18.51;60.21;99360.41;4393819;32;19989;-88
2022/06/20 01:53:50;;;;;;;;;;;;;;;18.52;60.20;99370.84;4380047;32;20060;-89
2022/06/20 01:56:15;;;;;;;;;;;;;;;18.41;60.20;99368.94;4367414;32;20344;-88
2022/06/20 01:58:42;;;;;;;;;;;;;;;18.44;60.20;99365.25;4380007;32;20631;-88
2022/06/20 02:01:07;;;;;;;;;;;;;;;18.37;60.21;99359.56;4393460;32;20041;-89
2022/06/20 02:03:34;;;;;;;;;;;;;;;18.35;60.20;99361.47;4393445;32;20022;-87
2022/06/20 02:05:59;;;;;;;;;;;;;;;18.41;60.20;99365.47;4393667;32;20413;-87
2022/06/20 02:08:24;;;;;;;;;;;;;;;18.30;60.18;99350.41;4379315;32;24905;-88
2022/06/20 02:10:59;;;;;;;;;;;;;;;18.29;60.19;99347.91;4366724;32;33933;-90
2022/06/20 02:13:24;;;;;;;;;;;;;;;18.19;60.19;99338.94;4379840;32;19982;-88
2022/06/20 02:15:50;;;;;;;;;;;;;;;18.30;60.21;99329.34;4379723;32;20263;-88
2022/06/20 02:18:15;;;;;;;;;;;;;;;18.32;60.20;99334.50;4379472;32;20001;-88
2022/06/20 02:20:46;;;;;;;;;;;;;;;18.21;60.19;99332.59;4379752;32;20041;-88
2022/06/20 02:23:18;;;;;;;;;;;;;;;18.09;60.18;99329.03;4380246;32;20073;-89
2022/06/20 02:25:44;;;;;;;;;;;;;;;18.09;60.19;99329.03;4379716;32;19994;-88
2022/06/20 02:28:10;;;;;;;;;;;;;;;18.13;60.18;99329.66;4379608;32;20020;-89
2022/06/20 02:30:35;;;;;;;;;;;;;;;18.01;60.18;99330.53;4379719;32;20259;-91
2022/06/20 02:33:02;;;;;;;;;;;;;;;18.05;60.17;99326.75;4393273;32;20038;-89
2022/06/20 02:35:27;;;;;;;;;;;;;;;18.03;60.18;99320.75;4367232;32;20383;-90
2022/06/20 02:37:52;;;;;;;;;;;;;;;17.76;60.17;99321.69;4379114;32;25006;-89
2022/06/20 02:40:18;;;;;;;;;;;;;;;17.95;60.17;99315.97;4379432;32;20022;-89
2022/06/20 02:42:50;;;;;;;;;;;;;;;17.74;60.17;99317.44;4366997;32;20267;-89
2022/06/20 02:45:15;;;;;;;;;;;;;;;17.69;60.15;99324.81;4393119;32;20043;-90
2022/06/20 02:47:41;;;;;;;;;;;;;;;17.85;60.17;99325.47;4366348;32;24066;-89
2022/06/20 02:50:07;;;;;;;;;;;;;;;17.95;60.17;99321.25;4379266;32;20009;-89
2022/06/20 02:52:35;;;;;;;;;;;;;;;17.96;60.18;99319.47;4366817;32;20288;-89
2022/06/20 02:55:00;;;;;;;;;;;;;;;17.82;60.16;99317.78;4366779;32;20044;-88
2022/06/20 02:57:29;;;;;;;;;;;;;;;17.73;60.16;99323.66;4354672;32;788907;-89
2022/06/20 02:59:55;;;;;;;;;;;;;;;17.64;60.16;99324.28;4379272;32;20248;-89
2022/06/20 03:02:22;;;;;;;;;;;;;;;17.72;60.16;99325.44;4392707;32;19970;-89
2022/06/20 03:04:47;;;;;;;;;;;;;;;17.92;60.18;99318.84;4392874;32;20402;-90
2022/06/20 03:07:17;;;;;;;;;;;;;;;18.04;60.18;99315.37;4366051;32;25886;-89
2022/06/20 03:09:44;;;;;;;;;;;;;;;18.02;60.18;99314.63;4366828;32;19983;-89
2022/06/20 03:12:09;;;;;;;;;;;;;;;18.05;60.18;99305.66;4366493;32;19991;-89
2022/06/20 03:14:36;;;;;;;;;;;;;;;18.02;60.17;99303.25;4379107;32;20649;-89
2022/06/20 03:17:01;;;;;;;;;;;;;;;18.10;60.18;99308.81;4379314;32;20344;-88
2022/06/20 03:19:27;;;;;;;;;;;;;;;18.03;60.17;99310.19;4379170;32;19978;-89
2022/06/20 03:21:53;;;;;;;;;;;;;;;17.94;60.17;99309.03;4366542;32;19987;-88
2022/06/20 03:24:19;;;;;;;;;;;;;;;18.09;60.18;99305.34;4366454;32;20044;-91
2022/06/20 03:26:44;;;;;;;;;;;;;;;18.25;60.19;99304.28;4366387;32;20308;-90
2022/06/20 03:29:11;;;;;;;;;;;;;;;18.45;60.20;99305.47;4378773;32;19985;-90
2022/06/20 03:31:36;;;;;;;;;;;;;;;18.48;60.20;99311.38;4367511;32;19991;-90
2022/06/20 03:34:02;;;;;;;;;;;;;;;18.37;60.19;99306.03;4380345;32;26384;-89
2022/06/20 03:36:27;;;;;;;;;;;;;;;18.36;60.19;99305.19;4394082;32;26784;-89
2022/06/20 03:38:52;;;;;;;;;;;;;;;18.31;60.20;99301.19;4368382;32;20029;-90
2022/06/20 03:41:18;;;;;;;;;;;;;;;18.45;60.20;99305.47;4368370;32;20025;-90
2022/06/20 03:43:46;;;;;;;;;;;;;;;18.56;60.21;99305.56;4368311;32;19994;-91
2022/06/20 03:46:30;;;;;;;;;;;;;;;18.72;60.21;99300.06;4368402;32;19979;-90
2022/06/20 03:49:13;;;;;;;;;;;;;;;18.64;60.21;99303.25;4380834;32;20040;-91
2022/06/20 03:51:40;;;;;;;;;;;;;;;18.74;60.21;99290.25;4380530;32;20034;-90
2022/06/20 03:54:11;;;;;;;;;;;;;;;18.84;60.21;99292.09;4368174;32;20020;-89
2022/06/20 03:56:57;;;;;;;;;;;;;;;18.68;60.21;99289.72;4394472;32;19979;-89
2022/06/20 03:59:23;;;;;;;;;;;;;;;18.71;60.22;99296.59;4380770;32;19974;-89
2022/06/20 04:01:50;;;;;;;;;;;;;;;18.79;60.22;99288.94;4380189;32;20021;-87
2022/06/20 04:04:17;;;;;;;;;;;;;;;18.82;60.22;99294.00;4380650;32;20043;-87
2022/06/20 04:06:47;;;;;;;;;;;;;;;18.88;60.22;99290.06;4380801;32;19974;-88
2022/06/20 04:12:18;;;;;;;;;;;;;;;19.10;60.23;99300.72;4394118;32;20013;-88
2022/06/20 04:14:46;;;;;;;;;;;;;;;19.36;60.24;99297.91;4380766;32;20078;-88
2022/06/20 04:19:58;;;;;;;;;;;;;;;19.74;60.26;99300.34;4382931;32;20001;-86
2022/06/20 04:22:27;;;;;;;;;;;;;;;19.98;60.28;99295.78;4393658;32;28008;-88
2022/06/20 04:25:02;;;;;;;;;;;;;;;19.91;60.29;99300.72;4380654;32;20002;-88
2022/06/20 04:27:53;;;;;;;;;;;;;;;19.98;60.28;99293.16;4394224;32;19979;-89
2022/06/20 04:30:25;;;;;;;;;;;;;;;20.17;60.29;99285.47;4377360;32;19979;-87
2022/06/20 04:32:51;;;;;;;;;;;;;;;20.16;60.29;99291.72;4394059;32;19979;-90
2022/06/20 04:35:18;;;;;;;;;;;;;;;20.50;60.30;99292.53;4380633;32;19994;-91
2022/06/20 04:37:48;;;;;;;;;;;;;;;20.62;60.32;99290.72;4380397;32;20013;-89
2022/06/20 04:40:16;;;;;;;;;;;;;;;21.07;60.34;99286.13;4380499;32;20054;-88
2022/06/20 04:42:44;;;;;;;;;;;;;;;21.14;60.33;99287.31;4394153;32;20050;-91
2022/06/20 04:45:24;;;;;;;;;;;;;;;21.32;60.34;99287.63;4393772;32;19990;-91
2022/06/20 04:47:53;;;;;;;;;;;;;;;21.43;60.35;99289.34;4380320;32;20039;-90
2022/06/20 04:50:29;;;;;;;;;;;;;;;21.66;60.36;99280.28;4380225;32;19990;-90
2022/06/20 04:52:56;;;;;;;;;;;;;;;21.65;60.37;99285.72;4367757;32;20005;-90
2022/06/20 04:55:21;;;;;;;;;;;;;;;21.52;60.36;99277.97;4380426;32;20628;-90
2022/06/20 04:57:47;;;;;;;;;;;;;;;21.54;60.35;99281.34;4380364;32;19971;-90
2022/06/20 05:00:34;;;;;;;;;;;;;;;21.72;60.38;99273.62;4367708;32;19997;-88
2022/06/20 05:03:00;;;;;;;;;;;;;;;21.97;60.38;99280.31;4380154;32;20012;-87
2022/06/20 05:05:26;;;;;;;;;;;;;;;22.17;60.39;99273.31;4379764;32;20324;-88
2022/06/20 05:07:52;;;;;;;;;;;;;;;22.15;60.39;99278.75;4380256;32;20041;-88
2022/06/20 05:10:36;;;;;;;;;;;;;;;22.32;60.39;99272.81;4379886;32;19979;-87
2022/06/20 05:13:04;;;;;;;;;;;;;;;22.55;60.41;99277.91;4367671;32;20009;-87
2022/06/20 05:15:38;;;;;;;;;;;;;;;22.53;60.41;99274.53;4367765;32;20006;-87
2022/06/20 05:18:07;;;;;;;;;;;;;;;22.94;60.42;99273.50;4367352;32;20061;-86
2022/06/20 05:20:35;;;;;;;;;;;;;;;23.00;60.43;99283.56;4367471;32;19993;-88
2022/06/20 05:23:02;;;;;;;;;;;;;;;23.14;60.44;99280.47;4367637;32;20811;-86
2022/06/20 05:25:27;;;;;;;;;;;;;;;23.13;60.44;99276.16;4379970;32;19998;-88
2022/06/20 05:27:53;;;;;;;;;;;;;;;23.19;60.45;99286.22;4379727;32;19982;-88
2022/06/20 05:30:20;;;;;;;;;;;;;;;23.16;60.44;99288.31;4380296;32;20008;-87
2022/06/20 05:32:46;;;;;;;;;;;;;;;23.47;60.45;99287.19;4393881;32;20271;-88
2022/06/20 05:35:21;;;;;;;;;;;;;;;23.60;60.47;99292.22;4380186;32;19998;-89
2022/06/20 05:37:48;;;;;;;;;;;;;;;23.53;60.46;99281.28;4380224;32;19970;-88
2022/06/20 05:40:30;;;;;;;;;;;;;;;23.66;60.48;99289.00;4380244;32;19986;-89
2022/06/20 05:42:56;;;;;;;;;;;;;;;23.83;60.48;99290.06;4367573;32;20001;-88
2022/06/20 05:45:22;;;;;;;;;;;;;;;24.12;60.49;99281.97;4380117;32;20264;-88
2022/06/20 05:47:48;;;;;;;;;;;;;;;24.09;60.49;99277.78;4367474;32;20001;-86
2022/06/20 05:50:13;;;;;;;;;;;;;;;24.43;60.50;99269.25;4393569;32;19975;-86
2022/06/20 05:52:40;;;;;;;;;;;;;;;24.46;60.51;99274.28;4379859;32;19994;-86
2022/06/20 05:55:09;;;;;;;;;;;;;;;24.72;60.52;99271.75;4379559;32;20014;-86
2022/06/20 05:57:34;;;;;;;;;;;;;;;24.80;60.52;99283.28;4379972;32;19974;-87
2022/06/20 06:00:05;;;;;;;;;;;;;;;24.88;60.53;99281.72;4378962;32;20000;-86
2022/06/20 06:02:30;;;;;;;;;;;;;;;25.08;60.54;99281.44;4379301;32;20024;-86
2022/06/20 06:04:58;;;;;;;;;;;;;;;25.15;60.55;99283.50;4393370;32;19990;-87
2022/06/20 06:07:49;;;;;;;;;;;;;;;25.23;60.55;99288.88;4392751;32;20414;-87
2022/06/20 06:10:19;;;;;;;;;;;;;;;25.42;60.56;99291.38;4376989;32;20085;-86
2022/06/20 06:12:46;;;;;;;;;;;;;;;25.74;60.58;99279.28;4379993;32;19990;-86
2022/06/20 06:15:11;;;;;;;;;;;;;;;25.97;60.59;99277.75;4379950;32;19990;-86
2022/06/20 06:17:46;;;;;;;;;;;;;;;25.94;60.59;99272.75;4393306;32;20348;-86
2022/06/20 06:20:17;;;;;;;;;;;;;;;26.08;60.58;99272.16;4378842;32;20060;-86
2022/06/20 06:22:43;;;;;;;;;;;;;;;26.44;60.61;99272.84;4378975;32;19994;-87
2022/06/20 06:25:31;;;;;;;;;;;;;;;26.48;60.62;99260.81;4366509;32;20001;-86
2022/06/20 06:28:00;;;;;;;;;;;;;;;26.62;60.62;99260.22;4366346;32;19990;-86
2022/06/20 06:30:36;;;;;;;;;;;;;;;27.00;60.64;99263.31;4379344;32;19978;-86
2022/06/20 06:33:04;;;;;;;;;;;;;;;27.37;60.66;99257.44;4367000;32;20058;-87
2022/06/20 06:35:37;;;;;;;;;;;;;;;27.51;60.67;99259.47;4379734;32;20008;-87
2022/06/20 06:38:09;;;;;;;;;;;;;;;27.65;60.67;99255.28;4379593;32;19989;-86
2022/06/20 06:40:37;;;;;;;;;;;;;;;28.11;60.70;99250.12;4367245;32;19974;-86
2022/06/20 06:43:06;;;;;;;;;;;;;;;28.36;60.70;99248.19;4393354;32;20042;-86
2022/06/20 06:45:32;;;;;;;;;;;;;;;28.80;60.73;99247.59;4379812;32;20109;-86
2022/06/20 06:47:59;;;;;;;;;;;;;;;29.02;60.74;99253.00;4379649;32;19988;-86
2022/06/20 06:50:42;;;;;;;;;;;;;;;29.52;60.77;99253.44;4366996;32;20025;-87
2022/06/20 06:53:21;;;;;;;;;;;;;;;29.79;60.78;99257.34;4379470;32;20323;-87
2022/06/20 06:55:50;;;;;;;;;;;;;;;29.94;60.78;99256.34;4379614;32;20009;-87
2022/06/20 06:58:18;;;;;;;;;;;;;;;30.18;60.79;99243.69;4379527;32;20312;-87
2022/06/20 07:00:44;;;;;;;;;;;;;;;30.32;60.81;99237.47;4379403;32;20033;-87
2022/06/20 07:03:15;;;;;;;;;;;;;;;30.49;60.81;99236.19;4379286;32;20002;-87
2022/06/20 07:05:41;;;;;;;;;;;;;;;30.55;60.82;99224.72;4379752;32;20002;-87
2022/06/20 07:08:14;;;;;;;;;;;;;;;30.61;60.82;99225.84;4368673;32;20046;-87
2022/06/20 07:10:48;;;;;;;;;;;;;;;30.66;60.82;99220.72;4381304;32;19982;-87
2022/06/20 07:13:19;;;;;;;;;;;;;;;30.67;60.83;99217.00;4394969;32;20006;-87
2022/06/20 07:15:45;;;;;;;;;;;;;;;30.63;60.83;99217.59;4381310;32;19994;-87
2022/06/20 07:18:12;;;;;;;;;;;;;;;30.97;60.84;99206.94;4381454;32;19974;-87
2022/06/20 07:20:39;;;;;;;;;;;;;;;31.06;60.85;99210.34;4381354;32;19986;-87
2022/06/20 07:23:05;;;;;;;;;;;;;;;31.27;60.86;99209.53;4381319;32;20029;-88
2022/06/20 07:25:35;;;;;;;;;;;;;;;31.34;60.87;99203.16;4395022;32;19990;-86
2022/06/20 07:28:05;;;;;;;;;;;;;;;31.41;60.87;99211.28;4368605;32;20456;-87
2022/06/20 07:30:33;;;;;;;;;;;;;;;31.47;60.87;99205.12;4381256;32;19974;-85
2022/06/20 07:32:59;;;;;;;;;;;;;;;31.66;60.88;99208.94;4381222;32;19986;-85
2022/06/20 07:35:29;;;;;;;;;;;;;;;31.57;60.88;99202.91;4394859;32;20001;-84
2022/06/20 07:37:56;;;;;;;;;;;;;;;31.74;60.89;99193.53;4394847;32;19967;-84
2022/06/20 07:40:25;;;;;;;;;;;;;;;31.78;60.88;99191.25;4394847;32;19975;-84
2022/06/20 07:42:53;;;;;;;;;;;;;;;31.77;60.88;99186.91;4394796;32;19994;-84
2022/06/20 07:45:18;;;;;;;;;;;;;;;31.89;60.90;99181.78;4394834;32;19986;-84
2022/06/20 07:47:43;;;;;;;;;;;;;;;32.08;60.90;99182.91;4394805;32;19997;-84
2022/06/20 07:50:10;;;;;;;;;;;;;;;32.18;60.90;99172.56;4394905;32;19979;-84
2022/06/20 07:52:37;;;;;;;;;;;;;;;32.20;60.91;99181.31;4380981;32;20332;-83
2022/06/20 07:55:04;;;;;;;;;;;;;;;32.29;60.91;99180.94;4380940;32;20001;-83
2022/06/20 07:57:32;;;;;;;;;;;;;;;32.33;60.91;99184.87;4394785;32;19978;-83
2022/06/20 08:00:04;;;;;;;;;;;;;;;32.33;60.91;99187.59;4380918;32;19990;-83
2022/06/20 08:02:46;;;;;;;;;;;;;;;32.40;60.92;99181.38;4394546;32;19994;-82
2022/06/20 08:05:16;;;;;;;;;;;;;;;32.36;60.92;99186.34;4394776;32;19978;-82
2022/06/20 08:07:48;;;;;;;;;;;;;;;32.33;60.91;99184.06;4380898;32;20279;-82
2022/06/20 08:10:15;;;;;;;;;;;;;;;32.35;60.92;99177.44;4380963;32;20053;-82
2022/06/20 08:12:42;;;;;;;;;;;;;;;32.57;60.92;99174.59;4380808;32;19990;-82
2022/06/20 08:15:11;;;;;;;;;;;;;;;32.65;60.93;99166.28;4380955;32;20013;-82
2022/06/20 08:17:37;;;;;;;;;;;;;;;32.41;60.92;99173.09;4380555;32;20005;-81
2022/06/20 08:20:02;;;;;;;;;;;;;;;32.69;60.94;99169.44;4380927;32;19978;-82
2022/06/20 08:22:33;;;;;;;;;;;;;;;32.88;60.94;99163.22;4380752;32;20279;-82
2022/06/20 08:25:09;;;;;;;;;;;;;;;32.87;60.94;99166.97;4394611;32;20009;-82
2022/06/20 08:27:53;;;;;;;;;;;;;;;33.22;60.95;99163.03;4380826;32;20012;-82
2022/06/20 08:30:19;;;;;;;;;;;;;;;33.36;60.96;99157.63;4393399;32;20000;-82
2022/06/20 08:32:48;;;;;;;;;;;;;;;33.65;60.98;99154.47;4380934;32;20323;-83
2022/06/20 08:35:13;;;;;;;;;;;;;;;33.58;60.98;99157.16;4394541;32;20048;-83
2022/06/20 08:37:50;;;;;;;;;;;;;;;33.32;60.97;99156.41;4394410;32;20003;-83
2022/06/20 08:40:30;;;;;;;;;;;;;;;33.64;60.97;99160.06;4380863;32;20358;-83
2022/06/20 08:43:18;;;;;;;;;;;;;;;33.84;60.99;99155.47;4394267;32;19979;-83
2022/06/20 08:45:56;;;;;;;;;;;;;;;33.79;60.99;99153.38;4380698;32;20009;-83
2022/06/20 08:48:36;;;;;;;;;;;;;;;33.89;60.99;99152.97;4380543;32;20050;-83
2022/06/20 08:51:07;;;;;;;;;;;;;;;34.14;61.01;99153.06;4394437;32;20077;-84
2022/06/20 08:53:51;;;;;;;;;;;;;;;34.33;61.01;99146.72;4380851;32;19986;-84
2022/06/20 08:56:21;;;;;;;;;;;;;;;34.65;61.03;99139.44;4394410;32;20001;-84
2022/06/20 08:58:46;;;;;;;;;;;;;;;34.82;61.04;99141.63;4380635;32;19970;-84
2022/06/20 09:01:19;;;;;;;;;;;;;;;35.08;61.05;99144.97;4394262;32;19970;-84
2022/06/20 09:04:03;;;;;;;;;;;;;;;35.18;61.06;99138.19;4367839;32;19986;-84
2022/06/20 09:06:28;;;;;;;;;;;;;;;35.38;61.06;99136.97;4394622;32;19991;-84
2022/06/20 09:09:20;;;;;;;;;;;;;;;35.46;61.07;99132.31;4380378;32;19986;-84
2022/06/20 09:11:57;;;;;;;;;;;;;;;35.51;61.07;99125.19;4390464;32;19979;-84
2022/06/20 09:14:45;;;;;;;;;;;;;;;35.65;61.08;99121.25;4394248;32;19982;-84
2022/06/20 09:17:15;;;;;;;;;;;;;;;35.75;61.08;99117.22;4352382;32;19994;-84
2022/06/20 09:19:47;;;;;;;;;;;;;;;35.94;61.09;99105.31;4380503;32;19990;-84
2022/06/20 09:22:15;;;;;;;;;;;;;;;36.03;61.09;99103.13;4380550;32;20263;-84
2022/06/20 09:24:59;;;;;;;;;;;;;;;36.05;61.09;99099.13;4394206;32;19982;-85
2022/06/20 09:27:24;;;;;;;;;;;;;;;36.12;61.10;99080.88;4394092;32;20043;-84
2022/06/20 09:29:52;;;;;;;;;;;;;;;36.20;61.10;99093.28;4393279;32;19975;-84
2022/06/20 09:32:36;;;;;;;;;;;;;;;36.24;61.11;99078.22;4394155;32;19983;-85
2022/06/20 09:35:20;;;;;;;;;;;;;;;36.20;61.10;99075.16;4394312;32;19993;-85
2022/06/20 09:37:45;;;;;;;;;;;;;;;36.28;61.10;99066.69;4392763;32;19998;-85
2022/06/20 09:40:13;;;;;;;;;;;;;;;36.33;61.11;99076.84;4394120;32;20316;-85
2022/06/20 09:42:57;;;;;;;;;;;;;;;36.35;61.11;99065.78;4380206;32;19978;-85
2022/06/20 09:45:26;;;;;;;;;;;;;;;36.28;61.11;99061.28;4394253;32;20256;-85
2022/06/20 09:48:11;;;;;;;;;;;;;;;36.25;61.11;99069.03;4367899;32;19999;-85
2022/06/20 09:50:45;;;;;;;;;;;;;;;36.27;61.11;99069.63;4394071;32;19971;-85
2022/06/20 09:53:27;;;;;;;;;;;;;;;36.46;61.11;99067.72;4394012;32;19985;-85
2022/06/20 09:56:00;;;;;;;;;;;;;;;36.49;61.13;99054.50;4367532;32;20326;-85
2022/06/20 09:58:28;;;;;;;;;;;;;;;36.41;61.12;99057.53;4380276;32;20100;-85
2022/06/20 10:00:57;;;;;;;;;;;;;;;36.48;61.12;99057.44;4367579;32;20327;-85
2022/06/20 10:03:41;;;;;;;;;;;;;;;36.38;61.12;99057.19;4393948;32;20028;-85
2022/06/20 10:06:28;;;;;;;;;;;;;;;36.46;61.11;99056.87;4392588;32;20001;-85
2022/06/20 10:08:57;;;;;;;;;;;;;;;36.46;61.11;99048.72;4392486;32;19994;-85
2022/06/20 10:11:24;;;;;;;;;;;;;;;36.41;61.12;99041.28;4393826;32;19989;-84
2022/06/20 10:13:58;;;;;;;;;;;;;;;36.61;61.12;99040.13;4380074;32;19991;-85
2022/06/20 10:16:26;;;;;;;;;;;;;;;36.54;61.13;99049.19;4393769;32;20343;-85
2022/06/20 10:19:08;;;;;;;;;;;;;;;36.68;61.13;99038.97;4393706;32;19994;-85
2022/06/20 10:21:48;;;;;;;;;;;;;;;36.71;61.13;99045.81;4379920;32;20356;-85
2022/06/20 10:24:29;;;;;;;;;;;;;;;36.63;61.14;99029.88;4380040;32;19987;-85
2022/06/20 10:27:01;;;;;;;;;;;;;;;36.86;61.14;99041.56;4379924;32;20005;-85
2022/06/20 10:29:41;;;;;;;;;;;;;;;37.03;61.15;99038.16;4379816;32;20009;-85
2022/06/20 10:32:19;;;;;;;;;;;;;;;37.11;61.16;99022.31;4393590;32;19966;-85
2022/06/20 10:34:51;;;;;;;;;;;;;;;37.16;61.15;99029.75;4379800;32;19982;-84
2022/06/20 10:37:27;;;;;;;;;;;;;;;37.23;61.15;99026.91;4367119;32;20359;-85
2022/06/20 10:39:57;;;;;;;;;;;;;;;37.15;61.15;99017.25;4379679;32;19999;-85
2022/06/20 10:42:22;;;;;;;;;;;;;;;37.31;61.16;99021.12;4379695;32;20275;-85
2022/06/20 10:45:06;;;;;;;;;;;;;;;37.44;61.17;99018.97;4379672;32;20021;-85
2022/06/20 10:47:40;;;;;;;;;;;;;;;37.39;61.17;99016.16;4393319;32;20009;-85
2022/06/20 10:50:10;;;;;;;;;;;;;;;37.31;61.16;99021.94;4393373;32;20001;-85
2022/06/20 10:52:37;;;;;;;;;;;;;;;37.54;61.17;99020.22;4366923;32;20054;-86
2022/06/20 10:55:09;;;;;;;;;;;;;;;37.79;61.18;99016.13;4379588;32;19974;-86
2022/06/20 10:57:34;;;;;;;;;;;;;;;37.69;61.18;99015.09;4393312;32;20006;-86
2022/06/20 11:00:12;;;;;;;;;;;;;;;37.71;61.18;99010.25;4379435;32;19987;-86
2022/06/20 11:02:50;;;;;;;;;;;;;;;37.53;61.17;99005.00;4379284;32;20096;-86
2022/06/20 11:05:34;;;;;;;;;;;;;;;37.55;61.17;99011.84;4379458;32;20327;-86
2022/06/20 11:08:17;;;;;;;;;;;;;;;37.52;61.18;98996.03;4393087;32;20036;-86
2022/06/20 11:10:52;;;;;;;;;;;;;;;37.61;61.18;98991.84;4393248;32;20105;-86
2022/06/20 11:13:17;;;;;;;;;;;;;;;37.86;61.19;99001.56;4393223;32;20705;-86
2022/06/20 11:15:45;;;;;;;;;;;;;;;37.80;61.18;98997.94;4393024;32;19974;-86
2022/06/20 11:18:11;;;;;;;;;;;;;;;37.74;61.18;98988.88;4366709;32;20499;-86
2022/06/20 11:20:57;;;;;;;;;;;;;;;37.77;61.19;98987.56;4392961;32;19983;-86
2022/06/20 11:23:41;;;;;;;;;;;;;;;37.83;61.18;98992.03;4379144;32;19975;-87
2022/06/20 11:26:08;;;;;;;;;;;;;;;37.82;61.18;98990.38;4393094;32;20235;-86
2022/06/20 11:28:47;;;;;;;;;;;;;;;37.87;61.19;98990.50;4366765;32;19994;-86
2022/06/20 11:31:36;;;;;;;;;;;;;;;38.04;61.20;98987.78;4379304;32;19987;-86
2022/06/20 11:34:27;;;;;;;;;;;;;;;37.92;61.19;98987.84;4379327;32;19986;-86
2022/06/20 11:36:55;;;;;;;;;;;;;;;37.83;61.20;98989.31;4379512;32;20013;-86
2022/06/20 11:39:23;;;;;;;;;;;;;;;37.79;61.18;98988.16;4392618;32;20307;-86
2022/06/20 11:41:50;;;;;;;;;;;;;;;37.89;61.19;98985.63;4378786;32;19998;-86
2022/06/20 11:44:20;;;;;;;;;;;;;;;37.98;61.19;98984.16;4378926;32;19993;-87
2022/06/20 11:46:52;;;;;;;;;;;;;;;38.15;61.20;98996.94;4392616;32;20036;-87
2022/06/20 11:49:31;;;;;;;;;;;;;;;38.19;61.21;98981.81;4378724;32;20018;-86
2022/06/20 11:52:00;;;;;;;;;;;;;;;38.25;61.21;98972.66;4379493;32;20339;-86
2022/06/20 11:54:28;;;;;;;;;;;;;;;38.21;61.21;98977.78;4380850;32;20030;-86
2022/06/20 11:57:10;;;;;;;;;;;;;;;38.28;61.21;98988.47;4394823;32;20052;-86
2022/06/20 11:59:50;;;;;;;;;;;;;;;38.30;61.21;98989.88;4381044;32;19990;-87
2022/06/20 12:02:34;;;;;;;;;;;;;;;38.21;61.21;98993.25;4380854;32;20010;-86
2022/06/20 12:05:00;;;;;;;;;;;;;;;38.02;61.20;98979.87;4394919;32;20323;-86
2022/06/20 12:07:30;;;;;;;;;;;;;;;38.13;61.20;98972.72;4394590;32;20018;-86
2022/06/20 12:10:07;;;;;;;;;;;;;;;38.25;61.21;98978.09;4380871;32;19990;-86
2022/06/20 12:12:37;;;;;;;;;;;;;;;38.37;61.21;98979.69;4380894;32;20009;-86
2022/06/20 12:15:02;;;;;;;;;;;;;;;38.45;61.22;98972.97;4380824;32;20030;-86
2022/06/20 12:17:30;;;;;;;;;;;;;;;38.62;61.22;98965.66;4380958;32;20017;-86
2022/06/20 12:25:35;;;;;;;;;;;;;;;38.65;61.22;98967.06;4383033;32;20020;-86
2022/06/20 12:28:00;;;;;;;;;;;;;;;38.66;61.23;98952.38;4380688;32;20366;-86
2022/06/20 12:30:25;;;;;;;;;;;;;;;38.56;61.22;98942.13;4367611;32;25357;-87
2022/06/20 12:32:52;;;;;;;;;;;;;;;38.57;61.23;98949.25;4380203;32;23609;-86
2022/06/20 12:35:24;;;;;;;;;;;;;;;38.55;61.22;98945.94;4380728;32;19979;-86
2022/06/20 12:38:10;;;;;;;;;;;;;;;38.44;61.22;98943.31;4380682;32;20315;-86
2022/06/20 12:40:39;;;;;;;;;;;;;;;38.50;61.22;98942.31;4368241;32;20010;-86
2022/06/20 12:43:11;;;;;;;;;;;;;;;38.52;61.22;98938.28;4380796;32;20012;-86
2022/06/20 12:45:40;;;;;;;;;;;;;;;38.67;61.23;98937.72;4380736;32;19971;-87
2022/06/20 12:48:08;;;;;;;;;;;;;;;38.66;61.23;98936.06;4394348;32;19974;-86
2022/06/20 12:50:41;;;;;;;;;;;;;;;38.56;61.22;98936.69;4394341;32;20264;-84
2022/06/20 12:53:25;;;;;;;;;;;;;;;38.58;61.23;98933.75;4380763;32;20001;-85
2022/06/20 12:55:59;;;;;;;;;;;;;;;38.63;61.22;98921.06;4394600;32;19978;-84
2022/06/20 12:58:48;;;;;;;;;;;;;;;38.61;61.23;98925.09;4380813;32;19994;-85
2022/06/20 13:01:13;;;;;;;;;;;;;;;38.59;61.23;98921.81;4384287;32;20002;-85
2022/06/20 13:03:53;;;;;;;;;;;;;;;38.57;61.23;98921.22;4393083;32;20315;-84
2022/06/20 13:06:37;;;;;;;;;;;;;;;38.59;61.23;98924.53;4394335;32;19974;-84
2022/06/20 13:09:20;;;;;;;;;;;;;;;38.51;61.22;98920.31;4394256;32;19970;-84
2022/06/20 13:12:00;;;;;;;;;;;;;;;38.61;61.23;98925.09;4380321;32;20045;-84
2022/06/20 13:14:29;;;;;;;;;;;;;;;38.71;61.23;98924.41;4380442;32;20017;-84
2022/06/20 13:17:03;;;;;;;;;;;;;;;38.67;61.23;98915.94;4380577;32;19989;-84
2022/06/20 13:19:32;;;;;;;;;;;;;;;38.69;61.23;98930.12;4394176;32;19981;-84
2022/06/20 13:22:09;;;;;;;;;;;;;;;38.58;61.23;98923.69;4380340;32;19990;-84